sensor_id;sensor_type;location;lat;lon;timestamp;temperature;humidity
70734;DHT22;58320;48.804;9.252;2023-06-26T00:01:24;20.60;52.00
70734;DHT22;58320;48.804;9.252;2023-06-26T00:03:49;20.50;52.60
70734;DHT22;58320;48.804;9.252;2023-06-26T00:06:15;20.50;52.50
70734;DHT22;58320;48.804;9.252;2023-06-26T00:08:41;20.50;52.50
70734;DHT22;58320;48.804;9.252;2023-06-26T00:11:06;20.40;52.80
70734;DHT22;58320;48.804;9.252;2023-06-26T00:13:33;20.40;52.80
70734;DHT22;58320;48.804;9.252;2023-06-26T00:15:59;20.40;52.90
70734;DHT22;58320;48.804;9.252;2023-06-26T00:18:28;20.30;53.00
70734;DHT22;58320;48.804;9.252;2023-06-26T00:20:54;20.30;52.90
70734;DHT22;58320;48.804;9.252;2023-06-26T00:23:20;20.20;53.10
70734;DHT22;58320;48.804;9.252;2023-06-26T00:25:46;20.10;53.90
70734;DHT22;58320;48.804;9.252;2023-06-26T00:28:11;20.00;54.50
70734;DHT22;58320;48.804;9.252;2023-06-26T00:30:37;19.90;55.10
70734;DHT22;58320;48.804;9.252;2023-06-26T00:33:03;19.80;55.50
70734;DHT22;58320;48.804;9.252;2023-06-26T00:35:29;19.70;55.60
70734;DHT22;58320;48.804;9.252;2023-06-26T00:37:54;19.60;55.90
70734;DHT22;58320;48.804;9.252;2023-06-26T00:40:20;19.60;56.50
70734;DHT22;58320;48.804;9.252;2023-06-26T00:42:46;19.50;56.80
70734;DHT22;58320;48.804;9.252;2023-06-26T00:45:11;19.40;57.10
70734;DHT22;58320;48.804;9.252;2023-06-26T00:47:37;19.30;57.20
70734;DHT22;58320;48.804;9.252;2023-06-26T00:50:04;19.30;57.50
70734;DHT22;58320;48.804;9.252;2023-06-26T00:52:31;19.30;57.30
70734;DHT22;58320;48.804;9.252;2023-06-26T00:54:57;19.20;57.30
70734;DHT22;58320;48.804;9.252;2023-06-26T00:57:23;19.30;57.20
70734;DHT22;58320;48.804;9.252;2023-06-26T00:59:50;19.30;57.10
70734;DHT22;58320;48.804;9.252;2023-06-26T01:02:16;19.30;57.60
70734;DHT22;58320;48.804;9.252;2023-06-26T01:04:49;19.30;57.20
70734;DHT22;58320;48.804;9.252;2023-06-26T01:07:16;19.40;56.70
70734;DHT22;58320;48.804;9.252;2023-06-26T01:09:47;19.40;56.70
70734;DHT22;58320;48.804;9.252;2023-06-26T01:12:13;19.50;56.10
70734;DHT22;58320;48.804;9.252;2023-06-26T01:14:39;19.70;55.40
70734;DHT22;58320;48.804;9.252;2023-06-26T01:17:06;19.80;54.90
70734;DHT22;58320;48.804;9.252;2023-06-26T01:19:33;20.00;54.50
70734;DHT22;58320;48.804;9.252;2023-06-26T01:22:06;20.00;54.30
70734;DHT22;58320;48.804;9.252;2023-06-26T01:24:56;20.00;54.20
70734;DHT22;58320;48.804;9.252;2023-06-26T01:27:30;20.10;53.90
70734;DHT22;58320;48.804;9.252;2023-06-26T01:30:00;20.10;53.70
70734;DHT22;58320;48.804;9.252;2023-06-26T01:32:29;20.10;53.90
70734;DHT22;58320;48.804;9.252;2023-06-26T01:34:56;20.00;54.20
70734;DHT22;58320;48.804;9.252;2023-06-26T01:37:22;20.00;54.40
70734;DHT22;58320;48.804;9.252;2023-06-26T01:39:48;20.00;54.00
70734;DHT22;58320;48.804;9.252;2023-06-26T01:42:14;20.00;54.00
70734;DHT22;58320;48.804;9.252;2023-06-26T01:44:44;20.00;54.00
70734;DHT22;58320;48.804;9.252;2023-06-26T01:47:12;20.00;54.00
70734;DHT22;58320;48.804;9.252;2023-06-26T01:50:05;20.00;53.80
70734;DHT22;58320;48.804;9.252;2023-06-26T01:58:19;19.90;54.40
70734;DHT22;58320;48.804;9.252;2023-06-26T02:00:47;19.90;54.80
70734;DHT22;58320;48.804;9.252;2023-06-26T02:03:13;19.90;54.60
70734;DHT22;58320;48.804;9.252;2023-06-26T02:05:39;19.80;54.60
70734;DHT22;58320;48.804;9.252;2023-06-26T02:08:04;19.80;54.70
70734;DHT22;58320;48.804;9.252;2023-06-26T02:10:30;19.80;54.60
70734;DHT22;58320;48.804;9.252;2023-06-26T02:12:56;19.80;54.70
70734;DHT22;58320;48.804;9.252;2023-06-26T02:15:22;19.80;54.70
70734;DHT22;58320;48.804;9.252;2023-06-26T02:17:48;19.80;54.60
70734;DHT22;58320;48.804;9.252;2023-06-26T02:20:15;19.80;54.70
70734;DHT22;58320;48.804;9.252;2023-06-26T02:22:41;19.70;54.80
70734;DHT22;58320;48.804;9.252;2023-06-26T02:25:08;19.70;54.90
70734;DHT22;58320;48.804;9.252;2023-06-26T02:27:35;19.70;55.00
70734;DHT22;58320;48.804;9.252;2023-06-26T02:30:01;19.60;55.20
70734;DHT22;58320;48.804;9.252;2023-06-26T02:32:27;19.60;55.30
70734;DHT22;58320;48.804;9.252;2023-06-26T02:34:53;19.60;55.50
70734;DHT22;58320;48.804;9.252;2023-06-26T02:37:19;19.60;55.40
70734;DHT22;58320;48.804;9.252;2023-06-26T02:39:45;19.60;55.60
70734;DHT22;58320;48.804;9.252;2023-06-26T02:42:11;19.50;55.70
70734;DHT22;58320;48.804;9.252;2023-06-26T02:44:37;19.60;55.60
70734;DHT22;58320;48.804;9.252;2023-06-26T02:47:03;19.50;55.80
70734;DHT22;58320;48.804;9.252;2023-06-26T02:49:29;19.50;55.90
70734;DHT22;58320;48.804;9.252;2023-06-26T02:51:54;19.50;55.80
70734;DHT22;58320;48.804;9.252;2023-06-26T02:54:20;19.50;55.80
70734;DHT22;58320;48.804;9.252;2023-06-26T02:56:46;19.50;55.80
70734;DHT22;58320;48.804;9.252;2023-06-26T02:59:11;19.50;55.90
70734;DHT22;58320;48.804;9.252;2023-06-26T03:01:37;19.50;55.90
70734;DHT22;58320;48.804;9.252;2023-06-26T03:04:04;19.50;56.10
70734;DHT22;58320;48.804;9.252;2023-06-26T03:06:30;19.40;56.10
70734;DHT22;58320;48.804;9.252;2023-06-26T03:08:55;19.40;56.10
70734;DHT22;58320;48.804;9.252;2023-06-26T03:11:21;19.30;56.30
70734;DHT22;58320;48.804;9.252;2023-06-26T03:13:47;19.30;56.10
70734;DHT22;58320;48.804;9.252;2023-06-26T03:16:13;19.40;56.00
70734;DHT22;58320;48.804;9.252;2023-06-26T03:18:38;19.50;55.80
70734;DHT22;58320;48.804;9.252;2023-06-26T03:21:05;19.50;55.90
70734;DHT22;58320;48.804;9.252;2023-06-26T03:23:31;19.50;55.70
70734;DHT22;58320;48.804;9.252;2023-06-26T03:25:56;19.50;55.70
70734;DHT22;58320;48.804;9.252;2023-06-26T03:28:22;19.50;56.00
70734;DHT22;58320;48.804;9.252;2023-06-26T03:30:48;19.50;55.80
70734;DHT22;58320;48.804;9.252;2023-06-26T03:33:14;19.50;56.00
70734;DHT22;58320;48.804;9.252;2023-06-26T03:35:39;19.40;56.40
70734;DHT22;58320;48.804;9.252;2023-06-26T03:38:05;19.40;56.60
70734;DHT22;58320;48.804;9.252;2023-06-26T03:40:31;19.30;56.80
70734;DHT22;58320;48.804;9.252;2023-06-26T03:42:57;19.20;57.20
70734;DHT22;58320;48.804;9.252;2023-06-26T03:45:22;19.10;57.30
70734;DHT22;58320;48.804;9.252;2023-06-26T03:47:48;19.10;57.40
70734;DHT22;58320;48.804;9.252;2023-06-26T03:50:16;19.00;57.80
70734;DHT22;58320;48.804;9.252;2023-06-26T03:52:42;19.00;57.80
70734;DHT22;58320;48.804;9.252;2023-06-26T03:55:08;18.90;57.90
70734;DHT22;58320;48.804;9.252;2023-06-26T03:57:33;18.90;58.10
70734;DHT22;58320;48.804;9.252;2023-06-26T03:59:59;18.90;58.30
70734;DHT22;58320;48.804;9.252;2023-06-26T04:02:25;18.90;58.40
70734;DHT22;58320;48.804;9.252;2023-06-26T04:04:51;18.90;59.00
70734;DHT22;58320;48.804;9.252;2023-06-26T04:07:18;18.90;58.80
70734;DHT22;58320;48.804;9.252;2023-06-26T04:09:44;19.00;59.00
70734;DHT22;58320;48.804;9.252;2023-06-26T04:12:10;19.10;58.80
70734;DHT22;58320;48.804;9.252;2023-06-26T04:14:36;19.10;58.60
70734;DHT22;58320;48.804;9.252;2023-06-26T04:17:02;19.20;58.70
70734;DHT22;58320;48.804;9.252;2023-06-26T04:19:29;19.20;58.80
70734;DHT22;58320;48.804;9.252;2023-06-26T04:21:55;19.30;58.70
70734;DHT22;58320;48.804;9.252;2023-06-26T04:24:21;19.20;58.80
70734;DHT22;58320;48.804;9.252;2023-06-26T04:26:47;19.30;58.90
70734;DHT22;58320;48.804;9.252;2023-06-26T04:29:13;19.40;58.50
70734;DHT22;58320;48.804;9.252;2023-06-26T04:31:39;19.40;58.30
70734;DHT22;58320;48.804;9.252;2023-06-26T04:34:05;19.50;58.10
70734;DHT22;58320;48.804;9.252;2023-06-26T04:36:31;19.50;58.50
70734;DHT22;58320;48.804;9.252;2023-06-26T04:38:58;19.60;58.30
70734;DHT22;58320;48.804;9.252;2023-06-26T04:41:24;19.70;58.20
70734;DHT22;58320;48.804;9.252;2023-06-26T04:43:50;19.80;58.10
70734;DHT22;58320;48.804;9.252;2023-06-26T04:46:16;20.00;57.40
70734;DHT22;58320;48.804;9.252;2023-06-26T04:48:42;20.10;56.90
70734;DHT22;58320;48.804;9.252;2023-06-26T04:51:10;20.20;57.10
70734;DHT22;58320;48.804;9.252;2023-06-26T04:53:36;20.30;56.90
70734;DHT22;58320;48.804;9.252;2023-06-26T04:56:02;20.40;56.50
70734;DHT22;58320;48.804;9.252;2023-06-26T04:58:28;20.50;56.40
70734;DHT22;58320;48.804;9.252;2023-06-26T05:00:54;20.50;56.20
70734;DHT22;58320;48.804;9.252;2023-06-26T05:03:20;20.60;56.00
70734;DHT22;58320;48.804;9.252;2023-06-26T05:05:46;20.70;56.20
70734;DHT22;58320;48.804;9.252;2023-06-26T05:08:38;20.80;56.10
70734;DHT22;58320;48.804;9.252;2023-06-26T05:11:03;20.80;55.90
70734;DHT22;58320;48.804;9.252;2023-06-26T05:13:29;20.90;55.60
70734;DHT22;58320;48.804;9.252;2023-06-26T05:15:55;21.00;55.10
70734;DHT22;58320;48.804;9.252;2023-06-26T05:18:20;21.00;55.20
70734;DHT22;58320;48.804;9.252;2023-06-26T05:20:47;21.10;55.10
70734;DHT22;58320;48.804;9.252;2023-06-26T05:23:13;21.20;54.70
70734;DHT22;58320;48.804;9.252;2023-06-26T05:25:40;21.20;55.00
70734;DHT22;58320;48.804;9.252;2023-06-26T05:28:06;21.30;55.00
70734;DHT22;58320;48.804;9.252;2023-06-26T05:30:34;21.40;55.30
70734;DHT22;58320;48.804;9.252;2023-06-26T05:33:01;21.50;54.10
70734;DHT22;58320;48.804;9.252;2023-06-26T05:35:31;21.60;54.50
70734;DHT22;58320;48.804;9.252;2023-06-26T05:37:58;21.70;54.00
70734;DHT22;58320;48.804;9.252;2023-06-26T05:40:24;21.80;54.40
70734;DHT22;58320;48.804;9.252;2023-06-26T05:42:51;21.90;53.50
70734;DHT22;58320;48.804;9.252;2023-06-26T05:45:17;21.90;53.00
70734;DHT22;58320;48.804;9.252;2023-06-26T05:47:43;22.00;53.40
70734;DHT22;58320;48.804;9.252;2023-06-26T05:50:10;22.00;53.50
70734;DHT22;58320;48.804;9.252;2023-06-26T05:52:36;22.20;53.40
70734;DHT22;58320;48.804;9.252;2023-06-26T05:55:04;22.30;52.90
70734;DHT22;58320;48.804;9.252;2023-06-26T05:57:31;22.30;53.20
70734;DHT22;58320;48.804;9.252;2023-06-26T05:59:58;22.40;52.80
70734;DHT22;58320;48.804;9.252;2023-06-26T06:02:24;22.40;52.40
70734;DHT22;58320;48.804;9.252;2023-06-26T06:04:50;22.50;52.40
70734;DHT22;58320;48.804;9.252;2023-06-26T06:07:16;22.60;52.20
70734;DHT22;58320;48.804;9.252;2023-06-26T06:09:43;22.80;52.30
70734;DHT22;58320;48.804;9.252;2023-06-26T06:12:09;23.00;52.60
70734;DHT22;58320;48.804;9.252;2023-06-26T06:14:35;23.20;51.60
70734;DHT22;58320;48.804;9.252;2023-06-26T06:17:01;23.30;51.60
70734;DHT22;58320;48.804;9.252;2023-06-26T06:19:27;23.30;50.50
70734;DHT22;58320;48.804;9.252;2023-06-26T06:21:53;23.40;50.60
70734;DHT22;58320;48.804;9.252;2023-06-26T06:24:19;23.40;50.80
70734;DHT22;58320;48.804;9.252;2023-06-26T06:26:46;23.50;51.30
70734;DHT22;58320;48.804;9.252;2023-06-26T06:29:12;23.70;50.30
70734;DHT22;58320;48.804;9.252;2023-06-26T06:31:37;23.80;50.40
70734;DHT22;58320;48.804;9.252;2023-06-26T06:34:03;23.90;50.50
70734;DHT22;58320;48.804;9.252;2023-06-26T06:36:29;24.10;50.50
70734;DHT22;58320;48.804;9.252;2023-06-26T06:38:55;24.20;49.60
70734;DHT22;58320;48.804;9.252;2023-06-26T06:41:21;24.40;49.30
70734;DHT22;58320;48.804;9.252;2023-06-26T06:43:47;24.40;48.90
70734;DHT22;58320;48.804;9.252;2023-06-26T06:46:13;24.50;49.20
70734;DHT22;58320;48.804;9.252;2023-06-26T06:48:38;24.50;49.70
70734;DHT22;58320;48.804;9.252;2023-06-26T06:51:04;24.70;49.50
70734;DHT22;58320;48.804;9.252;2023-06-26T06:53:31;24.80;49.40
70734;DHT22;58320;48.804;9.252;2023-06-26T06:55:57;24.90;48.90
70734;DHT22;58320;48.804;9.252;2023-06-26T06:58:22;25.00;48.60
70734;DHT22;58320;48.804;9.252;2023-06-26T07:00:48;25.20;48.50
70734;DHT22;58320;48.804;9.252;2023-06-26T07:03:14;25.40;48.30
70734;DHT22;58320;48.804;9.252;2023-06-26T07:05:43;25.50;48.00
70734;DHT22;58320;48.804;9.252;2023-06-26T07:08:10;25.50;47.60
70734;DHT22;58320;48.804;9.252;2023-06-26T07:10:36;25.60;47.10
70734;DHT22;58320;48.804;9.252;2023-06-26T07:13:01;25.70;47.30
70734;DHT22;58320;48.804;9.252;2023-06-26T07:15:27;25.90;47.50
70734;DHT22;58320;48.804;9.252;2023-06-26T07:17:54;26.10;47.10
70734;DHT22;58320;48.804;9.252;2023-06-26T07:20:19;26.30;46.60
70734;DHT22;58320;48.804;9.252;2023-06-26T07:22:45;26.50;46.80
70734;DHT22;58320;48.804;9.252;2023-06-26T07:25:12;26.60;46.00
70734;DHT22;58320;48.804;9.252;2023-06-26T07:27:38;26.70;43.80
70734;DHT22;58320;48.804;9.252;2023-06-26T07:30:05;26.80;43.60
70734;DHT22;58320;48.804;9.252;2023-06-26T07:32:34;26.70;44.50
70734;DHT22;58320;48.804;9.252;2023-06-26T07:35:00;26.90;44.70
70734;DHT22;58320;48.804;9.252;2023-06-26T07:37:26;26.90;43.80
70734;DHT22;58320;48.804;9.252;2023-06-26T07:39:52;27.00;43.90
70734;DHT22;58320;48.804;9.252;2023-06-26T07:42:17;27.10;43.40
70734;DHT22;58320;48.804;9.252;2023-06-26T07:44:43;27.10;43.40
70734;DHT22;58320;48.804;9.252;2023-06-26T07:47:09;27.20;43.70
70734;DHT22;58320;48.804;9.252;2023-06-26T07:49:35;27.40;43.30
70734;DHT22;58320;48.804;9.252;2023-06-26T07:52:01;27.60;43.30
70734;DHT22;58320;48.804;9.252;2023-06-26T07:54:28;27.60;43.20
70734;DHT22;58320;48.804;9.252;2023-06-26T07:57:04;27.80;42.80
70734;DHT22;58320;48.804;9.252;2023-06-26T07:59:34;27.90;42.20
70734;DHT22;58320;48.804;9.252;2023-06-26T08:02:00;28.00;41.90
70734;DHT22;58320;48.804;9.252;2023-06-26T08:04:28;28.10;42.00
70734;DHT22;58320;48.804;9.252;2023-06-26T08:06:57;28.20;41.40
70734;DHT22;58320;48.804;9.252;2023-06-26T08:09:27;28.40;40.60
70734;DHT22;58320;48.804;9.252;2023-06-26T08:11:54;28.30;40.70
70734;DHT22;58320;48.804;9.252;2023-06-26T08:14:20;28.40;41.20
70734;DHT22;58320;48.804;9.252;2023-06-26T08:16:47;28.50;40.20
70734;DHT22;58320;48.804;9.252;2023-06-26T08:19:14;28.60;39.80
70734;DHT22;58320;48.804;9.252;2023-06-26T08:21:44;28.60;40.10
70734;DHT22;58320;48.804;9.252;2023-06-26T08:24:11;28.80;40.40
70734;DHT22;58320;48.804;9.252;2023-06-26T08:26:38;29.00;40.30
70734;DHT22;58320;48.804;9.252;2023-06-26T08:29:04;29.20;40.00
70734;DHT22;58320;48.804;9.252;2023-06-26T08:31:36;29.10;39.50
70734;DHT22;58320;48.804;9.252;2023-06-26T08:34:03;29.10;39.70
70734;DHT22;58320;48.804;9.252;2023-06-26T08:36:30;29.20;39.70
70734;DHT22;58320;48.804;9.252;2023-06-26T08:38:56;29.30;39.60
70734;DHT22;58320;48.804;9.252;2023-06-26T08:41:22;29.30;39.40
70734;DHT22;58320;48.804;9.252;2023-06-26T08:43:48;29.30;39.10
70734;DHT22;58320;48.804;9.252;2023-06-26T08:46:16;29.50;39.60
70734;DHT22;58320;48.804;9.252;2023-06-26T08:48:48;29.60;39.00
70734;DHT22;58320;48.804;9.252;2023-06-26T08:51:17;29.60;39.80
70734;DHT22;58320;48.804;9.252;2023-06-26T08:53:56;29.70;39.50
70734;DHT22;58320;48.804;9.252;2023-06-26T08:56:25;29.90;39.50
70734;DHT22;58320;48.804;9.252;2023-06-26T08:59:01;30.00;38.90
70734;DHT22;58320;48.804;9.252;2023-06-26T09:01:27;30.20;38.30
70734;DHT22;58320;48.804;9.252;2023-06-26T09:03:53;30.20;38.40
70734;DHT22;58320;48.804;9.252;2023-06-26T09:06:19;30.20;37.90
70734;DHT22;58320;48.804;9.252;2023-06-26T09:08:45;30.20;38.10
70734;DHT22;58320;48.804;9.252;2023-06-26T09:11:11;30.30;38.10
70734;DHT22;58320;48.804;9.252;2023-06-26T09:13:37;30.30;39.00
70734;DHT22;58320;48.804;9.252;2023-06-26T09:16:06;30.50;37.90
70734;DHT22;58320;48.804;9.252;2023-06-26T09:18:35;30.50;38.50
70734;DHT22;58320;48.804;9.252;2023-06-26T09:21:07;30.60;37.70
70734;DHT22;58320;48.804;9.252;2023-06-26T09:23:34;30.60;37.50
70734;DHT22;58320;48.804;9.252;2023-06-26T09:26:03;30.60;37.70
70734;DHT22;58320;48.804;9.252;2023-06-26T09:28:30;30.80;37.80
70734;DHT22;58320;48.804;9.252;2023-06-26T09:31:04;30.90;37.80
70734;DHT22;58320;48.804;9.252;2023-06-26T09:33:35;31.00;37.00
70734;DHT22;58320;48.804;9.252;2023-06-26T09:36:05;31.00;37.50
70734;DHT22;58320;48.804;9.252;2023-06-26T09:38:37;31.10;37.40
70734;DHT22;58320;48.804;9.252;2023-06-26T09:41:03;31.20;37.00
70734;DHT22;58320;48.804;9.252;2023-06-26T09:43:29;31.10;37.00
70734;DHT22;58320;48.804;9.252;2023-06-26T09:45:56;30.90;37.20
70734;DHT22;58320;48.804;9.252;2023-06-26T09:48:22;30.90;36.90
70734;DHT22;58320;48.804;9.252;2023-06-26T09:50:48;30.80;37.10
70734;DHT22;58320;48.804;9.252;2023-06-26T09:53:16;30.80;37.20
70734;DHT22;58320;48.804;9.252;2023-06-26T09:55:44;31.10;36.90
70734;DHT22;58320;48.804;9.252;2023-06-26T09:58:13;31.40;36.40
70734;DHT22;58320;48.804;9.252;2023-06-26T10:00:43;31.70;35.90
70734;DHT22;58320;48.804;9.252;2023-06-26T10:03:10;31.80;36.10
70734;DHT22;58320;48.804;9.252;2023-06-26T10:05:37;32.00;35.90
70734;DHT22;58320;48.804;9.252;2023-06-26T10:08:05;32.20;35.50
70734;DHT22;58320;48.804;9.252;2023-06-26T10:10:33;32.20;35.70
70734;DHT22;58320;48.804;9.252;2023-06-26T10:13:08;32.30;36.10
70734;DHT22;58320;48.804;9.252;2023-06-26T10:15:37;32.40;35.90
70734;DHT22;58320;48.804;9.252;2023-06-26T10:18:05;32.30;35.60
70734;DHT22;58320;48.804;9.252;2023-06-26T10:20:31;32.10;36.10
70734;DHT22;58320;48.804;9.252;2023-06-26T10:23:00;31.90;36.60
70734;DHT22;58320;48.804;9.252;2023-06-26T10:25:27;31.90;36.80
70734;DHT22;58320;48.804;9.252;2023-06-26T10:27:57;32.00;36.80
70734;DHT22;58320;48.804;9.252;2023-06-26T10:30:28;32.10;36.90
70734;DHT22;58320;48.804;9.252;2023-06-26T10:32:56;32.10;36.70
70734;DHT22;58320;48.804;9.252;2023-06-26T10:35:24;32.00;37.50
70734;DHT22;58320;48.804;9.252;2023-06-26T10:37:50;32.10;37.10
70734;DHT22;58320;48.804;9.252;2023-06-26T10:40:26;31.80;37.20
70734;DHT22;58320;48.804;9.252;2023-06-26T10:43:06;31.50;38.00
70734;DHT22;58320;48.804;9.252;2023-06-26T10:45:33;31.00;38.90
70734;DHT22;58320;48.804;9.252;2023-06-26T10:48:00;30.70;39.30
70734;DHT22;58320;48.804;9.252;2023-06-26T10:50:30;30.60;39.70
70734;DHT22;58320;48.804;9.252;2023-06-26T10:55:58;31.10;38.90
70734;DHT22;58320;48.804;9.252;2023-06-26T11:06:13;31.60;37.20
70734;DHT22;58320;48.804;9.252;2023-06-26T11:11:16;31.60;36.80
70734;DHT22;58320;48.804;9.252;2023-06-26T11:13:44;31.80;36.60
70734;DHT22;58320;48.804;9.252;2023-06-26T11:16:12;31.90;36.80
70734;DHT22;58320;48.804;9.252;2023-06-26T11:18:40;32.10;35.80
70734;DHT22;58320;48.804;9.252;2023-06-26T11:21:09;31.90;35.90
70734;DHT22;58320;48.804;9.252;2023-06-26T11:23:40;31.90;36.70
70734;DHT22;58320;48.804;9.252;2023-06-26T11:26:18;31.90;36.50
70734;DHT22;58320;48.804;9.252;2023-06-26T11:28:54;31.80;36.60
70734;DHT22;58320;48.804;9.252;2023-06-26T11:31:25;31.40;36.60
70734;DHT22;58320;48.804;9.252;2023-06-26T11:34:00;30.70;37.90
70734;DHT22;58320;48.804;9.252;2023-06-26T11:36:27;30.90;37.80
70734;DHT22;58320;48.804;9.252;2023-06-26T11:38:57;31.60;37.40
70734;DHT22;58320;48.804;9.252;2023-06-26T11:41:27;32.40;36.80
70734;DHT22;58320;48.804;9.252;2023-06-26T11:43:55;32.10;37.10
70734;DHT22;58320;48.804;9.252;2023-06-26T11:46:23;31.70;38.00
70734;DHT22;58320;48.804;9.252;2023-06-26T11:48:49;31.30;38.80
70734;DHT22;58320;48.804;9.252;2023-06-26T11:51:15;31.70;39.10
70734;DHT22;58320;48.804;9.252;2023-06-26T11:53:46;32.00;38.60
70734;DHT22;58320;48.804;9.252;2023-06-26T11:56:14;31.60;39.30
70734;DHT22;58320;48.804;9.252;2023-06-26T11:58:59;31.20;39.90
70734;DHT22;58320;48.804;9.252;2023-06-26T12:01:38;30.70;40.80
70734;DHT22;58320;48.804;9.252;2023-06-26T12:04:10;30.80;41.10
70734;DHT22;58320;48.804;9.252;2023-06-26T12:06:38;30.80;41.20
70734;DHT22;58320;48.804;9.252;2023-06-26T12:09:09;31.40;40.60
70734;DHT22;58320;48.804;9.252;2023-06-26T12:11:39;32.00;39.70
70734;DHT22;58320;48.804;9.252;2023-06-26T12:14:07;33.10;38.20
70734;DHT22;58320;48.804;9.252;2023-06-26T12:16:36;34.00;37.30
70734;DHT22;58320;48.804;9.252;2023-06-26T12:19:05;34.60;37.50
70734;DHT22;58320;48.804;9.252;2023-06-26T12:24:07;34.20;36.30
70734;DHT22;58320;48.804;9.252;2023-06-26T12:26:34;34.00;36.70
70734;DHT22;58320;48.804;9.252;2023-06-26T12:31:33;34.40;36.20
70734;DHT22;58320;48.804;9.252;2023-06-26T12:34:00;34.60;36.20
70734;DHT22;58320;48.804;9.252;2023-06-26T12:36:26;34.40;36.10
70734;DHT22;58320;48.804;9.252;2023-06-26T12:38:55;34.20;36.40
70734;DHT22;58320;48.804;9.252;2023-06-26T12:41:24;34.30;36.10
70734;DHT22;58320;48.804;9.252;2023-06-26T12:43:49;34.50;36.30
70734;DHT22;58320;48.804;9.252;2023-06-26T12:46:33;34.80;36.00
70734;DHT22;58320;48.804;9.252;2023-06-26T12:49:00;34.60;36.00
70734;DHT22;58320;48.804;9.252;2023-06-26T12:51:26;34.50;36.20
70734;DHT22;58320;48.804;9.252;2023-06-26T12:53:53;34.70;36.10
70734;DHT22;58320;48.804;9.252;2023-06-26T12:56:18;35.20;35.30
70734;DHT22;58320;48.804;9.252;2023-06-26T12:58:45;35.30;35.00
70734;DHT22;58320;48.804;9.252;2023-06-26T13:01:11;35.60;34.60
70734;DHT22;58320;48.804;9.252;2023-06-26T13:03:39;35.60;34.80
70734;DHT22;58320;48.804;9.252;2023-06-26T13:06:05;35.60;35.30
70734;DHT22;58320;48.804;9.252;2023-06-26T13:08:31;35.50;34.70
70734;DHT22;58320;48.804;9.252;2023-06-26T13:10:57;35.90;34.20
70734;DHT22;58320;48.804;9.252;2023-06-26T13:13:22;35.40;34.20
70734;DHT22;58320;48.804;9.252;2023-06-26T13:15:49;34.60;35.60
70734;DHT22;58320;48.804;9.252;2023-06-26T13:18:15;34.70;35.60
70734;DHT22;58320;48.804;9.252;2023-06-26T13:20:41;35.20;35.00
70734;DHT22;58320;48.804;9.252;2023-06-26T13:23:06;34.70;35.00
70734;DHT22;58320;48.804;9.252;2023-06-26T13:25:33;34.60;35.30
70734;DHT22;58320;48.804;9.252;2023-06-26T13:27:58;34.90;35.00
70734;DHT22;58320;48.804;9.252;2023-06-26T13:30:24;35.20;34.20
70734;DHT22;58320;48.804;9.252;2023-06-26T13:32:50;35.40;34.10
70734;DHT22;58320;48.804;9.252;2023-06-26T13:35:16;35.30;33.70
70734;DHT22;58320;48.804;9.252;2023-06-26T13:37:41;35.40;33.60
70734;DHT22;58320;48.804;9.252;2023-06-26T13:40:08;35.20;33.70
70734;DHT22;58320;48.804;9.252;2023-06-26T13:42:35;35.00;33.60
70734;DHT22;58320;48.804;9.252;2023-06-26T13:45:02;34.70;34.00
70734;DHT22;58320;48.804;9.252;2023-06-26T13:47:28;34.70;33.90
70734;DHT22;58320;48.804;9.252;2023-06-26T13:49:54;34.30;34.40
70734;DHT22;58320;48.804;9.252;2023-06-26T13:52:20;34.60;34.20
70734;DHT22;58320;48.804;9.252;2023-06-26T13:54:46;35.20;33.20
70734;DHT22;58320;48.804;9.252;2023-06-26T13:57:12;35.50;32.70
70734;DHT22;58320;48.804;9.252;2023-06-26T13:59:38;35.00;32.20
70734;DHT22;58320;48.804;9.252;2023-06-26T14:02:05;34.90;32.20
70734;DHT22;58320;48.804;9.252;2023-06-26T14:04:32;35.10;31.60
70734;DHT22;58320;48.804;9.252;2023-06-26T14:06:58;34.70;31.20
70734;DHT22;58320;48.804;9.252;2023-06-26T14:09:24;34.50;31.90
70734;DHT22;58320;48.804;9.252;2023-06-26T14:11:50;34.20;31.40
70734;DHT22;58320;48.804;9.252;2023-06-26T14:14:16;33.90;31.90
70734;DHT22;58320;48.804;9.252;2023-06-26T14:16:42;33.80;32.10
70734;DHT22;58320;48.804;9.252;2023-06-26T14:19:08;33.70;32.20
70734;DHT22;58320;48.804;9.252;2023-06-26T14:21:41;34.40;31.20
70734;DHT22;58320;48.804;9.252;2023-06-26T14:24:07;34.70;30.80
70734;DHT22;58320;48.804;9.252;2023-06-26T14:26:33;34.60;31.30
70734;DHT22;58320;48.804;9.252;2023-06-26T14:29:00;34.70;31.00
70734;DHT22;58320;48.804;9.252;2023-06-26T14:31:26;34.90;31.10
70734;DHT22;58320;48.804;9.252;2023-06-26T14:33:52;35.20;30.60
70734;DHT22;58320;48.804;9.252;2023-06-26T14:36:18;35.60;30.50
70734;DHT22;58320;48.804;9.252;2023-06-26T14:38:44;35.50;30.20
70734;DHT22;58320;48.804;9.252;2023-06-26T14:41:11;34.90;30.80
70734;DHT22;58320;48.804;9.252;2023-06-26T14:43:38;35.10;30.90
70734;DHT22;58320;48.804;9.252;2023-06-26T14:46:04;35.50;30.40
70734;DHT22;58320;48.804;9.252;2023-06-26T14:48:30;35.40;29.90
70734;DHT22;58320;48.804;9.252;2023-06-26T14:50:56;35.00;30.70
70734;DHT22;58320;48.804;9.252;2023-06-26T14:53:21;35.30;30.70
70734;DHT22;58320;48.804;9.252;2023-06-26T14:55:47;35.10;30.80
70734;DHT22;58320;48.804;9.252;2023-06-26T14:58:13;35.30;30.90
70734;DHT22;58320;48.804;9.252;2023-06-26T15:00:39;35.40;31.00
70734;DHT22;58320;48.804;9.252;2023-06-26T15:03:04;35.20;30.80
70734;DHT22;58320;48.804;9.252;2023-06-26T15:05:30;34.90;31.40
70734;DHT22;58320;48.804;9.252;2023-06-26T15:07:56;34.90;31.30
70734;DHT22;58320;48.804;9.252;2023-06-26T15:10:21;34.70;32.00
70734;DHT22;58320;48.804;9.252;2023-06-26T15:12:47;34.40;31.70
70734;DHT22;58320;48.804;9.252;2023-06-26T15:15:14;34.00;32.70
70734;DHT22;58320;48.804;9.252;2023-06-26T15:17:40;34.50;31.90
70734;DHT22;58320;48.804;9.252;2023-06-26T15:20:06;35.10;31.60
70734;DHT22;58320;48.804;9.252;2023-06-26T15:22:32;35.60;30.70
70734;DHT22;58320;48.804;9.252;2023-06-26T15:24:58;34.90;31.20
70734;DHT22;58320;48.804;9.252;2023-06-26T15:27:24;34.00;31.90
70734;DHT22;58320;48.804;9.252;2023-06-26T15:29:50;33.60;32.40
70734;DHT22;58320;48.804;9.252;2023-06-26T15:32:15;33.60;32.80
70734;DHT22;58320;48.804;9.252;2023-06-26T15:34:42;33.40;32.60
70734;DHT22;58320;48.804;9.252;2023-06-26T15:37:07;32.70;33.20
70734;DHT22;58320;48.804;9.252;2023-06-26T15:39:33;32.40;34.00
70734;DHT22;58320;48.804;9.252;2023-06-26T15:41:59;32.50;33.70
70734;DHT22;58320;48.804;9.252;2023-06-26T15:44:24;32.40;33.80
70734;DHT22;58320;48.804;9.252;2023-06-26T15:46:50;32.20;34.00
70734;DHT22;58320;48.804;9.252;2023-06-26T15:49:16;32.20;34.10
70734;DHT22;58320;48.804;9.252;2023-06-26T15:51:42;32.40;34.00
70734;DHT22;58320;48.804;9.252;2023-06-26T15:54:10;32.60;34.00